Time;durP1;ratioP1;P1;durP2;ratioP2;P2;SDS_P1;SDS_P2;PMS_P1;PMS_P2;Temp;Humidity;BMP_temperature;BMP_pressure;BME280_temperature;BME280_humidity;BME280_pressure;Samples;Min_cycle;Max_cycle;Signal;HPM_P1;HPM_P2
2023/04/04 00:00:12;;;;;;;3.53;1.57;;;;;;;0.30;100.00;103469.41;4996594;28;20549;-64
2023/04/04 00:02:37;;;;;;;5.17;1.70;;;;;;;0.29;100.00;103467.66;5031291;28;20680;-64
2023/04/04 00:05:05;;;;;;;5.10;1.43;;;;;;;0.29;100.00;103457.56;5030076;28;20256;-64
2023/04/04 00:07:30;;;;;;;2.40;1.33;;;;;;;0.27;100.00;103456.50;5031181;28;20282;-64
2023/04/04 00:09:56;;;;;;;3.57;1.40;;;;;;;0.22;100.00;103463.59;5028766;28;20273;-64
2023/04/04 00:12:23;;;;;;;2.53;1.40;;;;;;;0.19;100.00;103463.28;5030967;28;20199;-64
2023/04/04 00:14:49;;;;;;;6.77;1.77;;;;;;;0.19;100.00;103478.38;5030661;28;20222;-64
2023/04/04 00:17:15;;;;;;;3.17;1.37;;;;;;;0.17;100.00;103470.53;5030851;28;20672;-64
2023/04/04 00:19:40;;;;;;;5.07;1.40;;;;;;;0.17;100.00;103460.47;5025563;28;20186;-65
2023/04/04 00:22:06;;;;;;;3.07;1.40;;;;;;;0.12;100.00;103449.91;5010286;28;20301;-65
2023/04/04 00:24:32;;;;;;;3.20;1.73;;;;;;;0.14;100.00;103461.91;5030756;28;20606;-64
2023/04/04 00:26:58;;;;;;;3.60;1.60;;;;;;;0.12;100.00;103459.97;5027789;28;20198;-65
2023/04/04 00:29:23;;;;;;;4.27;1.60;;;;;;;0.08;100.00;103457.00;5030944;28;20194;-65
2023/04/04 00:31:49;;;;;;;3.40;1.50;;;;;;;0.09;100.00;103445.44;5031069;28;20719;-66
2023/04/04 00:34:14;;;;;;;4.13;1.63;;;;;;;0.06;100.00;103436.69;5011708;28;20221;-66
2023/04/04 00:36:40;;;;;;;5.83;1.70;;;;;;;0.01;100.00;103430.31;5027258;28;20190;-65
2023/04/04 00:39:06;;;;;;;2.93;1.70;;;;;;;-0.01;100.00;103440.22;5030600;28;20182;-65
2023/04/04 00:41:31;;;;;;;2.53;1.47;;;;;;;-0.07;100.00;103434.56;5029789;28;20194;-65
2023/04/04 00:43:57;;;;;;;6.47;1.70;;;;;;;-0.09;100.00;103430.97;5026095;28;20272;-65
2023/04/04 00:46:24;;;;;;;3.67;1.73;;;;;;;-0.10;100.00;103431.72;5030361;28;20179;-65
2023/04/04 00:48:50;;;;;;;3.37;1.60;;;;;;;-0.13;100.00;103433.91;5012038;28;20590;-65
2023/04/04 00:51:15;;;;;;;4.73;1.93;;;;;;;-0.18;100.00;103434.19;5009447;28;20190;-65
2023/04/04 00:53:45;;;;;;;4.47;1.53;;;;;;;-0.19;100.00;103434.91;5011355;28;20727;-66
2023/04/04 00:56:11;;;;;;;4.43;1.80;;;;;;;-0.20;100.00;103433.13;5009433;28;20659;-65
2023/04/04 00:58:36;;;;;;;8.00;2.17;;;;;;;-0.20;100.00;103428.09;5012510;28;20694;-65
2023/04/04 01:01:04;;;;;;;4.10;1.50;;;;;;;-0.21;100.00;103418.75;5029853;28;20213;-65
2023/04/04 01:03:30;;;;;;;3.83;1.60;;;;;;;-0.25;100.00;103424.19;5012596;28;20236;-65
2023/04/04 01:05:56;;;;;;;4.20;2.07;;;;;;;-0.29;100.00;103427.13;4995729;28;20209;-65
2023/04/04 01:08:25;;;;;;;2.90;1.80;;;;;;;-0.35;100.00;103437.47;5029710;28;20261;-64
2023/04/04 01:10:51;;;;;;;4.53;1.60;;;;;;;-0.35;100.00;103437.47;5009641;28;20194;-65
2023/04/04 01:13:18;;;;;;;5.20;1.70;;;;;;;-0.44;100.00;103436.53;5011881;28;20217;-65
2023/04/04 01:15:45;;;;;;;5.47;2.13;;;;;;;-0.38;100.00;103433.72;5012219;28;20210;-65
2023/04/04 01:18:13;;;;;;;4.13;1.87;;;;;;;-0.40;100.00;103420.09;5011935;28;20214;-64
2023/04/04 01:21:09;;;;;;;4.53;1.83;;;;;;;-0.44;100.00;103413.88;5012269;28;20216;-65
2023/04/04 01:24:02;;;;;;;6.73;2.23;;;;;;;-0.44;100.00;103413.88;5028950;28;20174;-65
2023/04/04 01:26:41;;;;;;;2.77;1.40;;;;;;;-0.50;100.00;103407.31;5008564;28;20186;-65
2023/04/04 01:29:06;;;;;;;7.03;1.73;;;;;;;-0.52;100.00;103418.81;5029231;28;20190;-64
2023/04/04 01:31:36;;;;;;;7.80;1.90;;;;;;;-0.54;100.00;103408.59;5029543;28;20186;-63
2023/04/04 01:34:21;;;;;;;5.67;1.97;;;;;;;-0.59;100.00;103422.31;4992689;28;20207;-63
2023/04/04 01:36:56;;;;;;;3.70;1.93;;;;;;;-0.61;100.00;103431.34;5011466;28;20832;-63
2023/04/04 01:39:41;;;;;;;4.20;1.67;;;;;;;-0.61;100.00;103420.38;5016769;28;20194;-64
2023/04/04 01:42:08;;;;;;;4.03;2.03;;;;;;;-0.66;100.00;103399.78;5010841;28;20189;-64
2023/04/04 01:44:35;;;;;;;5.13;2.10;;;;;;;-0.64;100.00;103392.41;5011609;28;20469;-64
2023/04/04 01:47:02;;;;;;;3.73;2.00;;;;;;;-0.63;100.00;103387.50;5011118;28;20204;-63
2023/04/04 01:49:27;;;;;;;5.40;2.13;;;;;;;-0.66;100.00;103376.25;5027955;28;20888;-63
2023/04/04 01:51:54;;;;;;;4.27;1.93;;;;;;;-0.69;100.00;103380.97;4994048;28;20943;-63
2023/04/04 01:54:20;;;;;;;3.90;1.97;;;;;;;-0.72;100.00;103371.47;5010908;28;20288;-63
2023/04/04 01:56:45;;;;;;;3.80;2.00;;;;;;;-0.75;100.00;103387.88;5026509;28;20652;-64
2023/04/04 01:59:11;;;;;;;4.00;1.87;;;;;;;-0.73;100.00;103389.81;5009517;28;20746;-64
2023/04/04 02:01:37;;;;;;;3.13;1.87;;;;;;;-0.76;100.00;103387.00;5027678;28;20310;-63
2023/04/04 02:04:03;;;;;;;5.10;1.93;;;;;;;-0.83;100.00;103386.19;5011155;28;20208;-64
2023/04/04 02:06:29;;;;;;;3.27;1.77;;;;;;;-0.86;100.00;103383.34;5011522;28;20672;-64
2023/04/04 02:08:55;;;;;;;4.23;2.00;;;;;;;-0.89;100.00;103388.94;5011325;28;20193;-63
2023/04/04 02:11:22;;;;;;;4.57;1.50;;;;;;;-0.88;100.00;103383.19;5010990;28;20186;-63
2023/04/04 02:13:48;;;;;;;6.33;2.07;;;;;;;-0.89;100.00;103383.00;5008280;28;20477;-64
2023/04/04 02:16:17;;;;;;;4.20;2.10;;;;;;;-0.89;100.00;103378.88;5009924;28;20191;-64
2023/04/04 02:18:42;;;;;;;6.53;2.20;;;;;;;-0.90;100.00;103376.22;5029213;28;20716;-65
2023/04/04 02:21:08;;;;;;;5.40;1.90;;;;;;;-0.94;100.00;103369.06;5011134;28;20518;-66
2023/04/04 02:23:33;;;;;;;5.40;2.00;;;;;;;-0.99;100.00;103361.06;5028168;28;20214;-64
2023/04/04 02:25:59;;;;;;;4.50;2.00;;;;;;;-0.96;100.00;103361.34;5025401;28;20260;-64
2023/04/04 02:28:27;;;;;;;5.43;2.17;;;;;;;-0.94;100.00;103351.47;5010585;28;20733;-65
2023/04/04 02:30:52;;;;;;;2.90;1.83;;;;;;;-0.94;100.00;103359.91;4991196;28;20825;-65
2023/04/04 02:33:18;;;;;;;6.57;2.10;;;;;;;-0.99;100.00;103360.16;5026839;28;20501;-65
2023/04/04 02:35:44;;;;;;;3.17;1.97;;;;;;;-1.01;100.00;103375.06;5010634;28;20579;-64
2023/04/04 02:38:10;;;;;;;5.90;2.00;;;;;;;-1.00;100.00;103381.00;5013432;28;20430;-63
2023/04/04 02:40:41;;;;;;;2.73;1.73;;;;;;;-1.03;100.00;103376.53;5010616;28;20186;-66
2023/04/04 02:43:07;;;;;;;4.40;2.10;;;;;;;-1.05;100.00;103354.50;5025183;28;20452;-63
2023/04/04 02:45:34;;;;;;;5.70;2.23;;;;;;;-1.01;100.00;103354.97;5010653;28;20583;-63
2023/04/04 02:48:07;;;;;;;4.53;2.07;;;;;;;-0.99;100.00;103327.47;5008826;28;20297;-65
2023/04/04 02:50:40;;;;;;;5.60;2.30;;;;;;;-1.03;100.00;103298.63;5010295;28;20182;-62
2023/04/04 02:53:07;;;;;;;2.70;1.80;;;;;;;-1.02;100.00;103286.94;5010694;28;20471;-62
2023/04/04 02:55:34;;;;;;;3.63;1.90;;;;;;;-1.04;100.00;103279.25;5010612;28;20258;-62
2023/04/04 02:58:00;;;;;;;4.97;2.10;;;;;;;-1.03;100.00;103277.63;5010197;28;20433;-62
2023/04/04 03:00:26;;;;;;;3.47;2.10;;;;;;;-1.05;100.00;103269.03;5007618;28;20179;-63
2023/04/04 03:02:56;;;;;;;4.07;1.90;;;;;;;-1.08;100.00;103258.66;5009539;28;20480;-63
2023/04/04 03:05:29;;;;;;;2.03;1.60;;;;;;;-1.11;100.00;103254.22;5007174;28;20258;-63
2023/04/04 03:07:56;;;;;;;4.77;2.07;;;;;;;-1.13;100.00;103245.63;5002706;28;20508;-63
2023/04/04 03:10:22;;;;;;;3.37;2.07;;;;;;;-1.13;100.00;103244.72;5024292;28;20479;-64
2023/04/04 03:12:48;;;;;;;6.17;2.30;;;;;;;-1.14;100.00;103242.97;5024411;28;20568;-64
2023/04/04 03:15:14;;;;;;;4.03;2.40;;;;;;;-1.14;100.00;103247.97;5008880;28;20498;-64
2023/04/04 03:17:40;;;;;;;4.23;2.00;;;;;;;-1.18;100.00;103243.38;5010737;28;20473;-64
2023/04/04 03:20:06;;;;;;;3.07;2.00;;;;;;;-1.23;100.00;103242.88;5025565;28;20640;-64
2023/04/04 03:22:32;;;;;;;6.70;2.30;;;;;;;-1.24;100.00;103237.72;5011585;28;20540;-65
2023/04/04 03:25:01;;;;;;;3.70;1.73;;;;;;;-1.24;100.00;103240.22;5010590;28;20222;-63
2023/04/04 03:27:27;;;;;;;4.57;2.07;;;;;;;-1.27;100.00;103248.34;5010478;28;20467;-63
2023/04/04 03:29:53;;;;;;;3.10;1.87;;;;;;;-1.27;100.00;103244.91;5011064;28;20298;-63
2023/04/04 03:32:18;;;;;;;3.97;2.03;;;;;;;-1.26;100.00;103242.56;5009772;28;20219;-63
2023/04/04 03:34:44;;;;;;;4.37;2.27;;;;;;;-1.28;100.00;103235.59;5028193;28;20237;-63
2023/04/04 03:37:09;;;;;;;4.53;2.53;;;;;;;-1.28;100.00;103228.06;5010219;28;20767;-63
2023/04/04 03:39:35;;;;;;;5.00;2.30;;;;;;;-1.28;100.00;103226.44;5011752;28;20664;-63
2023/04/04 03:42:02;;;;;;;3.30;2.10;;;;;;;-1.27;100.00;103223.22;5013782;28;20248;-63
2023/04/04 03:44:27;;;;;;;5.23;2.40;;;;;;;-1.28;100.00;103221.41;5013633;28;20457;-63
2023/04/04 03:46:53;;;;;;;5.97;2.20;;;;;;;-1.29;100.00;103233.84;5014324;28;20190;-63
2023/04/04 03:49:19;;;;;;;8.17;2.50;;;;;;;-1.28;100.00;103220.53;5013327;28;20182;-63
2023/04/04 03:51:45;;;;;;;5.47;2.57;;;;;;;-1.28;100.00;103228.06;5013895;28;21020;-63
2023/04/04 03:54:10;;;;;;;3.13;2.07;;;;;;;-1.27;100.00;103222.31;5030249;28;20687;-63
2023/04/04 03:56:36;;;;;;;5.50;2.10;;;;;;;-1.28;100.00;103220.53;5014081;28;20256;-63
2023/04/04 03:59:03;;;;;;;4.70;2.17;;;;;;;-1.27;100.00;103220.69;5014539;28;20720;-63
2023/04/04 04:01:29;;;;;;;6.07;2.67;;;;;;;-1.29;100.00;103224.66;4996088;28;20495;-63
2023/04/04 04:03:55;;;;;;;4.90;2.57;;;;;;;-1.26;100.00;103216.53;5030373;28;20174;-63
2023/04/04 04:06:20;;;;;;;6.63;2.77;;;;;;;-1.29;100.00;103207.06;5013020;28;20191;-63
2023/04/04 04:08:47;;;;;;;4.63;2.23;;;;;;;-1.26;100.00;103212.44;5013925;28;20445;-63
2023/04/04 04:11:12;;;;;;;8.67;2.40;;;;;;;-1.29;100.00;103214.59;5011491;28;20434;-66
2023/04/04 04:13:39;;;;;;;4.73;2.60;;;;;;;-1.33;100.00;103206.59;5013113;28;20745;-63
2023/04/04 04:16:05;;;;;;;6.03;2.13;;;;;;;-1.35;100.00;103210.56;5008637;28;20209;-63
2023/04/04 04:18:31;;;;;;;3.33;2.27;;;;;;;-1.37;100.00;103207.03;5029681;28;20949;-63
2023/04/04 04:21:02;;;;;;;3.33;2.00;;;;;;;-1.39;100.00;103200.91;5013592;28;20190;-63
2023/04/04 04:23:31;;;;;;;6.30;2.33;;;;;;;-1.41;100.00;103203.31;5012180;28;20814;-63
2023/04/04 04:25:57;;;;;;;6.73;2.50;;;;;;;-1.41;100.00;103209.94;4995664;28;20860;-63
2023/04/04 04:28:24;;;;;;;4.80;2.27;;;;;;;-1.43;100.00;103213.88;5013177;28;20460;-63
2023/04/04 04:30:51;;;;;;;4.23;2.77;;;;;;;-1.44;100.00;103215.53;5013401;28;20428;-63
2023/04/04 04:33:26;;;;;;;4.87;2.70;;;;;;;-1.41;100.00;103220.88;5008969;28;20465;-63
2023/04/04 04:36:00;;;;;;;4.13;2.10;;;;;;;-1.45;100.00;103220.38;5013122;28;20456;-62
2023/04/04 04:38:29;;;;;;;7.00;2.50;;;;;;;-1.45;100.00;103222.91;5011303;28;20779;-65
2023/04/04 04:40:56;;;;;;;6.13;2.70;;;;;;;-1.48;100.00;103220.06;5010619;28;21130;-63
2023/04/04 04:43:26;;;;;;;4.73;2.70;;;;;;;-1.49;100.00;103214.16;5030592;28;20464;-66
2023/04/04 04:45:52;;;;;;;3.90;2.40;;;;;;;-1.49;100.00;103216.69;5030757;28;20791;-63
2023/04/04 04:48:17;;;;;;;6.67;2.80;;;;;;;-1.50;100.00;103219.03;5029733;28;20194;-65
2023/04/04 04:50:47;;;;;;;6.47;2.60;;;;;;;-1.48;100.00;103217.53;5012425;28;20186;-63
2023/04/04 04:53:17;;;;;;;4.60;2.40;;;;;;;-1.45;100.00;103218.78;5012611;28;20465;-63
2023/04/04 04:55:45;;;;;;;4.70;2.30;;;;;;;-1.44;100.00;103220.56;5007042;28;20458;-63
2023/04/04 04:58:11;;;;;;;3.57;2.37;;;;;;;-1.41;100.00;103209.94;5027933;28;20437;-62
2023/04/04 05:00:40;;;;;;;5.57;2.40;;;;;;;-1.40;100.00;103217.63;5012723;28;20514;-65
2023/04/04 05:03:06;;;;;;;8.97;2.73;;;;;;;-1.38;100.00;103217.81;5008906;28;20659;-65
2023/04/04 05:05:45;;;;;;;4.73;2.30;;;;;;;-1.36;100.00;103217.22;5012767;28;20320;-65
2023/04/04 05:08:12;;;;;;;4.13;2.43;;;;;;;-1.33;100.00;103217.53;5009843;28;20515;-65
2023/04/04 05:10:49;;;;;;;3.87;1.97;;;;;;;-1.33;100.00;103210.00;5009445;28;20432;-65
2023/04/04 05:13:16;;;;;;;7.40;2.77;;;;;;;-1.30;100.00;103217.84;5011175;28;20508;-63
2023/04/04 05:15:45;;;;;;;6.17;2.30;;;;;;;-1.26;100.00;103212.44;5011509;28;20535;-64
2023/04/04 05:18:11;;;;;;;6.93;2.50;;;;;;;-1.23;100.00;103209.34;5009426;28;20436;-65
2023/04/04 05:20:37;;;;;;;6.93;2.53;;;;;;;-1.22;100.00;103211.09;4995335;28;20723;-63
2023/04/04 05:23:04;;;;;;;7.10;3.00;;;;;;;-1.18;100.00;103214.13;5008980;28;20593;-62
2023/04/04 05:25:35;;;;;;;7.67;2.67;;;;;;;-1.16;100.00;103207.63;5009371;28;20752;-65
2023/04/04 05:28:02;;;;;;;5.40;2.97;;;;;;;-1.10;100.00;103210.75;5029855;28;20269;-65
2023/04/04 05:30:29;;;;;;;7.43;2.40;;;;;;;-1.06;100.00;103209.47;5010686;28;20194;-65
2023/04/04 05:33:08;;;;;;;10.30;3.10;;;;;;;-1.02;100.00;103212.44;5008429;28;20204;-63
2023/04/04 05:35:35;;;;;;;6.33;2.70;;;;;;;-0.96;100.00;103219.72;5009265;28;20675;-65
2023/04/04 05:38:01;;;;;;;6.60;2.53;;;;;;;-0.90;100.00;103212.81;5009592;28;20248;-65
2023/04/04 05:40:28;;;;;;;7.50;2.73;;;;;;;-0.83;100.00;103217.75;5009457;28;20182;-65
2023/04/04 05:43:03;;;;;;;5.23;3.03;;;;;;;-0.74;100.00;103221.16;5008654;28;20280;-64
2023/04/04 05:45:35;;;;;;;8.87;2.90;;;;;;;-0.66;100.00;103222.84;5006494;28;20572;-64
2023/04/04 05:48:01;;;;;;;7.57;3.30;;;;;;;-0.56;100.00;103225.56;5010792;28;20186;-64
2023/04/04 05:50:33;;;;;;;9.47;3.43;;;;;;;-0.46;100.00;103220.75;5008718;28;20182;-64
2023/04/04 05:53:01;;;;;;;8.20;3.33;;;;;;;-0.34;100.00;103222.84;5010555;28;20285;-64
2023/04/04 05:55:28;;;;;;;7.43;3.33;;;;;;;-0.23;100.00;103217.25;5007537;28;20211;-65
2023/04/04 05:57:55;;;;;;;8.30;3.03;;;;;;;-0.08;100.00;103208.72;5008924;28;20216;-64
2023/04/04 06:00:30;;;;;;;4.77;3.03;;;;;;;0.04;100.00;103209.03;5010695;28;20220;-64
2023/04/04 06:03:02;;;;;;;7.17;2.93;;;;;;;0.17;100.00;103201.94;5011701;28;20261;-65
2023/04/04 06:05:28;;;;;;;7.93;3.60;;;;;;;0.33;100.00;103203.59;5011005;28;20641;-65
2023/04/04 06:07:53;;;;;;;11.23;3.53;;;;;;;0.47;100.00;103195.75;5011468;28;20734;-65
2023/04/04 06:10:19;;;;;;;9.90;3.90;;;;;;;0.62;100.00;103206.44;5028978;28;20599;-65
2023/04/04 06:12:45;;;;;;;6.27;3.17;;;;;;;0.71;100.00;103194.72;4992325;28;20210;-66
2023/04/04 06:15:11;;;;;;;6.43;3.10;;;;;;;0.87;100.00;103202.97;5007339;28;20230;-65
2023/04/04 06:17:38;;;;;;;6.60;2.90;;;;;;;0.98;100.00;103201.50;5027937;28;20195;-65
2023/04/04 06:20:05;;;;;;;8.10;3.00;;;;;;;1.10;100.00;103195.09;5010856;28;20194;-65
2023/04/04 06:22:33;;;;;;;8.40;2.53;;;;;;;1.16;100.00;103194.03;5008419;28;20191;-65
2023/04/04 06:24:59;;;;;;;8.17;3.00;;;;;;;1.11;100.00;103200.28;5011107;28;20229;-65
2023/04/04 06:27:26;;;;;;;5.57;3.03;;;;;;;1.32;100.00;103194.72;5008278;28;20183;-65
2023/04/04 06:29:51;;;;;;;6.83;3.17;;;;;;;1.55;100.00;103186.75;5011280;28;20257;-65
2023/04/04 06:32:21;;;;;;;6.37;3.17;;;;;;;1.66;100.00;103181.06;5024583;28;20218;-65
2023/04/04 06:34:47;;;;;;;11.23;4.47;;;;;;;1.94;100.00;103186.28;5011311;28;20241;-65
2023/04/04 06:37:13;;;;;;;6.60;3.10;;;;;;;1.97;100.00;103178.09;5010907;28;20186;-63
2023/04/04 06:39:47;;;;;;;7.87;2.97;;;;;;;2.10;100.00;103165.78;5011089;28;20243;-64
2023/04/04 06:42:20;;;;;;;6.20;3.20;;;;;;;2.30;100.00;103166.81;5005708;28;20218;-64
2023/04/04 06:44:48;;;;;;;8.13;2.80;;;;;;;2.48;100.00;103152.44;5003568;28;20206;-64
2023/04/04 06:47:13;;;;;;;7.07;2.70;;;;;;;2.55;100.00;103106.69;5022522;28;20198;-64
2023/04/04 06:49:39;;;;;;;5.97;2.30;;;;;;;2.46;100.00;103089.09;5010153;28;20190;-65
2023/04/04 06:52:04;;;;;;;5.60;2.37;;;;;;;2.45;100.00;103079.75;5001651;28;20174;-65
2023/04/04 06:54:30;;;;;;;4.90;1.70;;;;;;;2.84;100.00;103077.22;5026965;28;20217;-64
2023/04/04 06:56:56;;;;;;;7.20;2.30;;;;;;;3.04;100.00;103057.91;5028707;28;20277;-65
2023/04/04 06:59:21;;;;;;;3.23;1.87;;;;;;;3.12;100.00;103041.75;5028055;28;20240;-64
2023/04/04 07:01:47;;;;;;;3.07;1.90;;;;;;;3.14;100.00;103032.66;5010993;28;20190;-65
2023/04/04 07:04:12;;;;;;;4.10;2.00;;;;;;;3.18;100.00;103021.13;5027986;28;20198;-65
2023/04/04 07:06:38;;;;;;;4.70;1.90;;;;;;;3.32;100.00;103018.09;5023603;28;20656;-65
2023/04/04 07:09:03;;;;;;;4.53;2.40;;;;;;;3.47;100.00;103014.31;5026689;28;20772;-65
2023/04/04 07:11:29;;;;;;;5.47;2.40;;;;;;;3.51;100.00;102974.19;5026337;28;20183;-65
2023/04/04 07:13:55;;;;;;;7.93;2.53;;;;;;;3.37;100.00;102989.00;5028191;28;20214;-65
2023/04/04 07:16:20;;;;;;;4.90;1.93;;;;;;;3.42;100.00;102970.91;5029627;28;20193;-65
2023/04/04 07:18:46;;;;;;;3.47;2.20;;;;;;;3.74;100.00;102955.75;5030514;28;20284;-65
2023/04/04 07:21:12;;;;;;;5.27;2.00;;;;;;;3.59;100.00;102904.75;5009397;28;20648;-65
2023/04/04 07:23:37;;;;;;;4.97;2.30;;;;;;;3.76;100.00;102895.97;5029212;28;20685;-65
2023/04/04 07:26:03;;;;;;;5.20;2.27;;;;;;;4.08;100.00;102884.16;5031039;28;20210;-65
2023/04/04 07:28:29;;;;;;;5.57;1.83;;;;;;;4.32;100.00;102854.00;5026741;28;20278;-66
2023/04/04 07:30:58;;;;;;;5.60;2.73;;;;;;;4.22;100.00;102860.78;5029562;28;20955;-65
2023/04/04 07:33:23;;;;;;;3.97;1.63;;;;;;;4.08;100.00;102819.19;5029313;28;20241;-64
2023/04/04 07:35:49;;;;;;;2.80;1.87;;;;;;;4.31;100.00;102853.88;5027819;28;20253;-65
2023/04/04 07:38:15;;;;;;;4.23;2.03;;;;;;;4.55;100.00;102886.19;5028393;28;20214;-65
2023/04/04 07:40:40;;;;;;;3.60;2.20;;;;;;;4.74;100.00;102863.97;5027296;28;20194;-65
2023/04/04 07:43:06;;;;;;;4.73;2.00;;;;;;;4.82;100.00;102842.56;5028543;28;20189;-65
2023/04/04 07:45:31;;;;;;;5.30;1.73;;;;;;;4.96;100.00;102808.94;5031765;28;20214;-65
2023/04/04 07:47:57;;;;;;;4.37;1.50;;;;;;;5.17;100.00;102734.34;5029518;28;20193;-66
2023/04/04 07:50:22;;;;;;;3.47;1.80;;;;;;;5.32;100.00;102707.50;5029124;28;20262;-65
2023/04/04 07:52:51;;;;;;;3.73;2.00;;;;;;;5.22;100.00;102705.09;5031518;28;20260;-65
2023/04/04 07:55:17;;;;;;;5.57;2.20;;;;;;;5.69;100.00;102752.47;5030250;28;20217;-65
2023/04/04 07:57:43;;;;;;;2.53;1.60;;;;;;;5.82;100.00;102689.03;5031410;28;20186;-65
2023/04/04 08:00:09;;;;;;;6.10;1.80;;;;;;;5.96;100.00;102606.94;5032013;28;20604;-65
2023/04/04 08:02:39;;;;;;;5.70;1.70;;;;;;;6.18;100.00;102600.81;5028510;28;20195;-66
2023/04/04 08:05:05;;;;;;;3.93;1.40;;;;;;;6.28;100.00;102526.88;5027872;28;20210;-65
2023/04/04 08:07:31;;;;;;;3.37;1.73;;;;;;;6.27;100.00;102526.78;5029429;28;20194;-64
2023/04/04 08:09:56;;;;;;;4.93;1.33;;;;;;;5.78;90.60;102403.28;5025692;28;20195;-69
2023/04/04 08:12:22;;;;;;;4.07;1.70;;;;;;;5.64;100.00;102467.59;5026819;28;20210;-68
2023/04/04 08:14:47;;;;;;;2.53;1.27;;;;;;;6.17;100.00;102463.41;5028335;28;20218;-68
2023/04/04 08:17:17;;;;;;;4.30;1.30;;;;;;;6.78;94.42;102405.31;5026377;28;20194;-66
2023/04/04 08:19:43;;;;;;;4.90;1.20;;;;;;;6.39;89.34;102350.38;5025355;28;20597;-67
2023/04/04 08:22:08;;;;;;;3.63;1.30;;;;;;;7.01;93.12;102362.56;5023899;28;20195;-66
2023/04/04 08:24:35;;;;;;;3.47;1.17;;;;;;;6.59;90.53;102338.84;5029597;28;20237;-66
2023/04/04 08:27:01;;;;;;;2.90;1.37;;;;;;;6.65;90.55;102363.00;5011177;28;20656;-67
2023/04/04 08:29:27;;;;;;;4.20;1.47;;;;;;;6.77;86.04;102315.31;5024482;28;20233;-66
2023/04/04 08:31:53;;;;;;;3.37;1.40;;;;;;;7.08;81.29;102272.13;5025147;28;20648;-65
2023/04/04 08:34:19;;;;;;;4.30;1.13;;;;;;;7.37;79.48;102249.16;5021288;28;20228;-66
2023/04/04 08:36:45;;;;;;;3.97;1.40;;;;;;;7.81;81.07;102253.28;5026408;28;20186;-66
2023/04/04 08:39:10;;;;;;;3.87;1.20;;;;;;;7.91;76.44;102227.47;5029331;28;20273;-65
2023/04/04 08:41:37;;;;;;;2.53;0.90;;;;;;;7.92;76.49;102241.13;5029604;28;20225;-66
2023/04/04 08:44:04;;;;;;;3.37;1.10;;;;;;;7.95;69.82;102203.00;5028146;28;20206;-65
2023/04/04 08:46:30;;;;;;;3.53;1.20;;;;;;;7.76;69.54;102213.94;5027698;28;20656;-66
2023/04/04 08:48:59;;;;;;;5.17;1.13;;;;;;;7.92;66.30;102206.25;5023589;28;20217;-66
2023/04/04 08:51:27;;;;;;;2.97;1.30;;;;;;;7.88;62.40;102203.50;5021797;28;20277;-66
2023/04/04 08:53:54;;;;;;;2.17;1.20;;;;;;;7.35;61.26;102241.44;5028777;28;20280;-66
2023/04/04 08:56:20;;;;;;;3.80;1.57;;;;;;;7.51;62.68;102306.84;5027124;28;20282;-66
2023/04/04 08:58:46;;;;;;;1.90;1.13;;;;;;;7.75;67.03;102384.66;5027745;28;20332;-66
2023/04/04 09:01:11;;;;;;;2.37;1.13;;;;;;;8.06;62.90;102394.06;5026258;28;20245;-66
2023/04/04 09:03:37;;;;;;;2.67;1.13;;;;;;;7.97;59.81;102391.00;5027270;28;20201;-65
2023/04/04 09:06:03;;;;;;;2.77;1.40;;;;;;;8.54;59.51;102518.34;5022412;28;20229;-67
2023/04/04 09:08:29;;;;;;;3.87;1.20;;;;;;;8.63;55.80;102557.16;5007740;28;20187;-66
2023/04/04 09:10:54;;;;;;;2.50;1.10;;;;;;;8.60;57.87;102590.16;5027635;28;20563;-67
2023/04/04 09:13:20;;;;;;;3.83;1.33;;;;;;;8.93;59.81;102627.75;5021098;28;20214;-65
2023/04/04 09:15:51;;;;;;;3.77;1.10;;;;;;;9.11;58.01;102624.53;5022690;28;20217;-66
2023/04/04 09:18:17;;;;;;;2.17;1.20;;;;;;;9.30;54.98;102622.16;5023412;28;20273;-66
2023/04/04 09:20:45;;;;;;;3.80;1.43;;;;;;;9.69;56.70;102641.25;5029679;28;20257;-66
2023/04/04 09:23:14;;;;;;;2.50;1.13;;;;;;;9.63;52.77;102633.28;5026887;28;20277;-67
2023/04/04 09:25:51;;;;;;;2.23;1.33;;;;;;;9.48;53.26;102638.47;5023253;28;20739;-67
2023/04/04 09:28:17;;;;;;;3.27;1.10;;;;;;;9.62;52.98;102639.16;5026852;28;20930;-66
2023/04/04 09:30:43;;;;;;;2.63;1.37;;;;;;;9.57;53.73;102661.97;5029390;28;20182;-66
2023/04/04 09:33:11;;;;;;;5.50;1.57;;;;;;;9.56;52.87;102655.09;5027817;28;20576;-67
2023/04/04 09:35:40;;;;;;;3.10;1.37;;;;;;;10.06;51.80;102652.59;5027885;28;20219;-67
2023/04/04 09:38:06;;;;;;;3.83;1.50;;;;;;;10.00;51.21;102647.16;5028882;28;20707;-67
2023/04/04 09:40:34;;;;;;;3.43;1.50;;;;;;;10.00;52.02;102672.75;5028871;28;20206;-65
2023/04/04 09:43:00;;;;;;;3.60;1.47;;;;;;;10.09;51.47;102673.25;5027397;28;20186;-65
2023/04/04 09:45:29;;;;;;;3.43;1.40;;;;;;;10.67;51.99;102675.28;5027728;28;21211;-67
2023/04/04 09:47:55;;;;;;;3.77;1.10;;;;;;;10.63;50.14;102658.03;5011019;28;21140;-67
2023/04/04 09:50:22;;;;;;;2.57;1.30;;;;;;;10.58;47.75;102639.00;5007774;28;20186;-64
2023/04/04 09:52:49;;;;;;;2.80;1.47;;;;;;;10.82;49.23;102665.78;5024087;28;20289;-67
2023/04/04 09:55:15;;;;;;;2.37;1.40;;;;;;;11.13;49.51;102672.44;5027035;28;20212;-66
2023/04/04 09:57:40;;;;;;;3.37;1.47;;;;;;;11.25;47.87;102672.97;5020026;28;20563;-68
2023/04/04 10:00:10;;;;;;;3.57;1.30;;;;;;;11.31;45.76;102659.56;5028090;28;20204;-68
2023/04/04 10:02:37;;;;;;;5.13;1.37;;;;;;;11.59;45.83;102703.59;5022119;28;20656;-67
2023/04/04 10:05:04;;;;;;;3.63;1.40;;;;;;;11.67;44.77;102689.47;5029184;28;20617;-67
2023/04/04 10:07:33;;;;;;;4.20;1.70;;;;;;;11.56;43.39;102753.09;5026942;28;20278;-67
2023/04/04 10:10:04;;;;;;;3.07;1.40;;;;;;;11.87;43.51;102765.66;5029553;28;20186;-66
2023/04/04 10:12:30;;;;;;;2.67;1.43;;;;;;;12.28;41.84;102738.44;5028988;28;20218;-66
2023/04/04 10:14:59;;;;;;;2.30;1.30;;;;;;;13.33;40.11;102726.50;5028787;28;20221;-66
2023/04/04 10:17:46;;;;;;;4.20;1.67;;;;;;;12.56;40.45;102753.31;5028841;28;20813;-66
2023/04/04 10:20:12;;;;;;;5.30;1.47;;;;;;;12.07;41.94;102795.69;5025363;28;20210;-66
2023/04/04 10:22:39;;;;;;;1.83;1.30;;;;;;;12.44;40.49;102748.53;5028148;28;20194;-66
2023/04/04 10:25:06;;;;;;;5.00;1.50;;;;;;;12.03;40.30;102730.47;5028718;28;20221;-66
2023/04/04 10:27:32;;;;;;;2.83;1.27;;;;;;;12.44;39.54;102738.25;5026973;28;20269;-66
2023/04/04 10:29:59;;;;;;;2.67;1.23;;;;;;;12.25;37.67;102710.03;5029641;28;20193;-66
2023/04/04 10:32:52;;;;;;;2.10;1.20;;;;;;;11.91;38.08;102740.22;5027200;28;20780;-66
2023/04/04 10:35:21;;;;;;;1.97;1.00;;;;;;;12.00;39.38;102763.72;5026919;28;20292;-65
2023/04/04 10:37:57;;;;;;;4.13;1.53;;;;;;;12.15;38.59;102743.84;5027543;28;20198;-66
2023/04/04 10:40:26;;;;;;;2.47;1.03;;;;;;;12.04;37.54;102733.91;5027173;28;20277;-66
2023/04/04 10:42:54;;;;;;;3.23;1.17;;;;;;;12.45;37.39;102732.28;5021279;28;20189;-66
2023/04/04 10:45:20;;;;;;;4.13;1.20;;;;;;;12.38;37.54;102748.28;5024374;28;20213;-66
2023/04/04 10:47:46;;;;;;;2.00;0.90;;;;;;;12.74;37.52;102752.41;5028069;28;20198;-66
2023/04/04 10:50:12;;;;;;;3.23;1.30;;;;;;;11.01;38.36;102756.44;5027896;28;20272;-66
2023/04/04 10:52:44;;;;;;;3.03;1.20;;;;;;;12.88;38.22;102791.50;5028022;28;20242;-66
2023/04/04 10:55:14;;;;;;;2.43;1.13;;;;;;;13.45;36.59;102747.53;5028624;28;20213;-66
2023/04/04 10:57:50;;;;;;;1.30;1.00;;;;;;;13.71;36.40;102733.97;5028620;28;20178;-66
2023/04/04 11:00:18;;;;;;;2.40;1.10;;;;;;;13.28;34.86;102730.59;5022540;28;20202;-66
2023/04/04 11:02:58;;;;;;;2.37;1.10;;;;;;;12.82;35.79;102742.41;5021916;28;20271;-66
2023/04/04 11:05:45;;;;;;;2.83;1.30;;;;;;;12.71;36.02;102746.22;5023609;28;22104;-66
2023/04/04 11:08:15;;;;;;;2.30;1.10;;;;;;;13.44;35.08;102737.22;5021502;28;20891;-66
2023/04/04 11:10:46;;;;;;;3.30;1.47;;;;;;;13.09;35.66;102747.81;5025904;28;20195;-66
2023/04/04 11:13:15;;;;;;;2.57;1.10;;;;;;;13.39;35.55;102757.63;5022654;28;20256;-66
2023/04/04 11:15:59;;;;;;;4.07;1.63;;;;;;;13.03;35.72;102732.16;5027013;28;20232;-66
2023/04/04 11:18:30;;;;;;;2.00;1.20;;;;;;;13.54;34.87;102727.31;5020744;28;20633;-66
2023/04/04 11:20:56;;;;;;;1.90;1.10;;;;;;;13.87;34.66;102720.84;5026946;28;20186;-66
2023/04/04 11:23:24;;;;;;;2.23;1.40;;;;;;;14.64;35.35;102747.63;5026558;28;20202;-67